sensor_id;sensor_type;location;lat;lon;timestamp;pressure;altitude;pressure_sealevel;temperature;humidity
28628;BME280;15815;46.760;19.604;2023-03-01T00:02:06;101364.09;;;3.79;83.63
28628;BME280;15815;46.760;19.604;2023-03-01T00:04:32;101368.50;;;3.88;83.37
28628;BME280;15815;46.760;19.604;2023-03-01T00:06:57;101338.59;;;3.77;83.70
28628;BME280;15815;46.760;19.604;2023-03-01T00:09:23;101359.81;;;3.90;83.23
28628;BME280;15815;46.760;19.604;2023-03-01T00:11:48;101330.91;;;3.73;82.70
28628;BME280;15815;46.760;19.604;2023-03-01T00:14:15;101355.25;;;3.85;82.61
28628;BME280;15815;46.760;19.604;2023-03-01T00:16:42;101358.69;;;3.82;83.00
28628;BME280;15815;46.760;19.604;2023-03-01T00:19:15;101368.31;;;3.93;82.64
28628;BME280;15815;46.760;19.604;2023-03-01T00:21:41;101375.50;;;3.94;82.85
28628;BME280;15815;46.760;19.604;2023-03-01T00:24:10;101359.19;;;3.84;82.38
28628;BME280;15815;46.760;19.604;2023-03-01T00:26:36;101364.72;;;3.93;82.62
28628;BME280;15815;46.760;19.604;2023-03-01T00:29:03;101362.41;;;3.95;81.91
28628;BME280;15815;46.760;19.604;2023-03-01T00:31:31;101350.81;;;3.93;82.27
28628;BME280;15815;46.760;19.604;2023-03-01T00:34:03;101340.53;;;3.85;81.84
28628;BME280;15815;46.760;19.604;2023-03-01T00:36:32;101331.53;;;3.79;81.89
28628;BME280;15815;46.760;19.604;2023-03-01T00:38:58;101342.78;;;3.91;82.11
28628;BME280;15815;46.760;19.604;2023-03-01T00:41:26;101328.75;;;3.79;82.06
28628;BME280;15815;46.760;19.604;2023-03-01T00:43:52;101334.13;;;3.93;81.65
28628;BME280;15815;46.760;19.604;2023-03-01T00:46:25;101337.03;;;3.96;82.22
28628;BME280;15815;46.760;19.604;2023-03-01T00:48:55;101341.09;;;3.99;81.75
28628;BME280;15815;46.760;19.604;2023-03-01T00:51:26;101328.59;;;3.84;82.00
28628;BME280;15815;46.760;19.604;2023-03-01T00:53:54;101346.34;;;4.00;82.15
28628;BME280;15815;46.760;19.604;2023-03-01T00:56:20;101313.53;;;3.85;82.01
28628;BME280;15815;46.760;19.604;2023-03-01T00:58:46;101315.47;;;3.93;81.75
28628;BME280;15815;46.760;19.604;2023-03-01T01:01:19;101320.06;;;3.89;81.89
28628;BME280;15815;46.760;19.604;2023-03-01T01:03:55;101320.06;;;3.89;81.96
28628;BME280;15815;46.760;19.604;2023-03-01T01:06:26;101325.16;;;3.87;82.12
28628;BME280;15815;46.760;19.604;2023-03-01T01:08:53;101309.28;;;3.79;82.11
28628;BME280;15815;46.760;19.604;2023-03-01T01:11:20;101333.28;;;3.92;82.85
28628;BME280;15815;46.760;19.604;2023-03-01T01:13:48;101307.03;;;3.72;82.79
28628;BME280;15815;46.760;19.604;2023-03-01T01:16:15;101332.47;;;3.92;82.73
28628;BME280;15815;46.760;19.604;2023-03-01T01:18:42;101334.44;;;3.91;82.41
28628;BME280;15815;46.760;19.604;2023-03-01T01:21:11;101332.28;;;3.97;82.72
28628;BME280;15815;46.760;19.604;2023-03-01T01:23:38;101340.28;;;3.98;83.00
28628;BME280;15815;46.760;19.604;2023-03-01T01:26:19;101336.22;;;3.96;82.77
28628;BME280;15815;46.760;19.604;2023-03-01T01:28:45;101334.94;;;3.93;82.83
28628;BME280;15815;46.760;19.604;2023-03-01T01:31:11;101298.84;;;3.76;83.03
28628;BME280;15815;46.760;19.604;2023-03-01T01:33:37;101299.00;;;3.80;83.01
28628;BME280;15815;46.760;19.604;2023-03-01T01:36:05;101317.91;;;3.95;83.36
28628;BME280;15815;46.760;19.604;2023-03-01T01:38:30;101282.84;;;3.73;82.74
28628;BME280;15815;46.760;19.604;2023-03-01T01:40:57;101299.81;;;3.80;83.47
28628;BME280;15815;46.760;19.604;2023-03-01T01:43:33;101323.31;;;3.91;82.95
28628;BME280;15815;46.760;19.604;2023-03-01T01:46:04;101283.16;;;3.71;83.10
28628;BME280;15815;46.760;19.604;2023-03-01T01:48:44;101318.72;;;3.95;83.60
28628;BME280;15815;46.760;19.604;2023-03-01T01:51:15;101313.28;;;3.99;83.32
28628;BME280;15815;46.760;19.604;2023-03-01T01:53:46;101311.81;;;4.01;83.08
28628;BME280;15815;46.760;19.604;2023-03-01T01:56:15;101300.13;;;3.87;83.08
28628;BME280;15815;46.760;19.604;2023-03-01T01:58:43;101312.81;;;3.97;83.00
28628;BME280;15815;46.760;19.604;2023-03-01T02:01:10;101296.31;;;3.92;82.71
28628;BME280;15815;46.760;19.604;2023-03-01T02:03:41;101303.31;;;3.98;82.56
28628;BME280;15815;46.760;19.604;2023-03-01T02:09:20;101297.28;;;3.96;82.25
28628;BME280;15815;46.760;19.604;2023-03-01T02:11:48;101283.56;;;3.91;82.03
28628;BME280;15815;46.760;19.604;2023-03-01T02:14:17;101292.53;;;3.96;81.38
28628;BME280;15815;46.760;19.604;2023-03-01T02:16:46;101283.56;;;3.91;81.88
28628;BME280;15815;46.760;19.604;2023-03-01T02:24:56;101285.59;;;4.02;81.63
28628;BME280;15815;46.760;19.604;2023-03-01T02:27:36;101230.34;;;3.71;81.14
28628;BME280;15815;46.760;19.604;2023-03-01T02:30:05;101255.47;;;3.84;81.50
28628;BME280;15815;46.760;19.604;2023-03-01T02:32:31;101256.56;;;3.91;81.69
28628;BME280;15815;46.760;19.604;2023-03-01T02:34:59;101267.28;;;4.01;81.56
28628;BME280;15815;46.760;19.604;2023-03-01T02:37:25;101261.59;;;3.98;81.08
28628;BME280;15815;46.760;19.604;2023-03-01T02:39:56;101246.25;;;3.92;81.35
28628;BME280;15815;46.760;19.604;2023-03-01T02:42:31;101234.03;;;3.84;81.09
28628;BME280;15815;46.760;19.604;2023-03-01T02:44:59;101239.91;;;3.83;81.19
28628;BME280;15815;46.760;19.604;2023-03-01T02:47:25;101226.53;;;3.76;80.87
28628;BME280;15815;46.760;19.604;2023-03-01T02:49:58;101204.22;;;3.64;80.70
28628;BME280;15815;46.760;19.604;2023-03-01T02:55:16;101243.13;;;3.93;80.46
28628;BME280;15815;46.760;19.604;2023-03-01T02:57:46;101239.59;;;3.84;80.46
28628;BME280;15815;46.760;19.604;2023-03-01T03:00:19;101237.28;;;3.86;80.03
28628;BME280;15815;46.760;19.604;2023-03-01T03:02:49;101223.56;;;3.81;79.98
28628;BME280;15815;46.760;19.604;2023-03-01T03:05:22;101244.75;;;3.94;79.95
28628;BME280;15815;46.760;19.604;2023-03-01T03:07:49;101235.00;;;3.88;79.58
28628;BME280;15815;46.760;19.604;2023-03-01T03:10:34;101245.25;;;3.96;79.37
28628;BME280;15815;46.760;19.604;2023-03-01T03:13:02;101246.25;;;3.92;79.13
28628;BME280;15815;46.760;19.604;2023-03-01T03:15:29;101237.78;;;3.88;78.99
28628;BME280;15815;46.760;19.604;2023-03-01T03:17:58;101211.28;;;3.82;79.19
28628;BME280;15815;46.760;19.604;2023-03-01T03:20:26;101237.84;;;4.00;79.14
28628;BME280;15815;46.760;19.604;2023-03-01T03:22:53;101232.63;;;3.99;79.71
28628;BME280;15815;46.760;19.604;2023-03-01T03:25:21;101225.56;;;4.01;79.06
28628;BME280;15815;46.760;19.604;2023-03-01T03:27:48;101185.16;;;3.75;78.94
28628;BME280;15815;46.760;19.604;2023-03-01T03:30:19;101216.81;;;3.91;79.33
28628;BME280;15815;46.760;19.604;2023-03-01T03:32:47;101212.31;;;3.98;79.37
28628;BME280;15815;46.760;19.604;2023-03-01T03:35:12;101223.59;;;4.02;79.19
28628;BME280;15815;46.760;19.604;2023-03-01T03:37:43;101223.72;;;4.06;79.31
28628;BME280;15815;46.760;19.604;2023-03-01T03:40:09;101216.28;;;3.97;78.80
28628;BME280;15815;46.760;19.604;2023-03-01T03:42:35;101214.28;;;3.98;79.29
28628;BME280;15815;46.760;19.604;2023-03-01T03:45:01;101197.69;;;3.89;79.41
28628;BME280;15815;46.760;19.604;2023-03-01T03:47:27;101189.34;;;3.89;79.08
28628;BME280;15815;46.760;19.604;2023-03-01T03:49:53;101183.47;;;3.82;79.28
28628;BME280;15815;46.760;19.604;2023-03-01T03:52:19;101199.91;;;3.96;79.93
28628;BME280;15815;46.760;19.604;2023-03-01T03:54:45;101217.34;;;4.05;79.37
28628;BME280;15815;46.760;19.604;2023-03-01T03:57:10;101191.16;;;3.85;79.66
28628;BME280;15815;46.760;19.604;2023-03-01T03:59:36;101220.47;;;4.03;79.96
28628;BME280;15815;46.760;19.604;2023-03-01T04:02:01;101212.31;;;3.98;79.74
28628;BME280;15815;46.760;19.604;2023-03-01T04:04:27;101215.09;;;3.98;79.60
28628;BME280;15815;46.760;19.604;2023-03-01T04:06:55;101183.00;;;3.80;80.01
28628;BME280;15815;46.760;19.604;2023-03-01T04:09:20;101210.03;;;4.00;79.80
28628;BME280;15815;46.760;19.604;2023-03-01T04:11:46;101205.81;;;3.94;79.85
28628;BME280;15815;46.760;19.604;2023-03-01T04:14:12;101191.44;;;3.92;79.54
28628;BME280;15815;46.760;19.604;2023-03-01T04:16:39;101195.50;;;3.95;79.86
28628;BME280;15815;46.760;19.604;2023-03-01T04:19:05;101173.66;;;3.85;80.21
28628;BME280;15815;46.760;19.604;2023-03-01T04:21:31;101185.19;;;3.95;79.89
28628;BME280;15815;46.760;19.604;2023-03-01T04:23:57;101183.91;;;3.93;79.95
28628;BME280;15815;46.760;19.604;2023-03-01T04:26:22;101203.16;;;3.98;79.69
28628;BME280;15815;46.760;19.604;2023-03-01T04:28:48;101181.66;;;3.86;79.88
28628;BME280;15815;46.760;19.604;2023-03-01T04:31:18;101189.69;;;3.88;80.21
28628;BME280;15815;46.760;19.604;2023-03-01T04:33:46;101200.88;;;4.00;80.44
28628;BME280;15815;46.760;19.604;2023-03-01T04:36:13;101197.47;;;3.94;80.56
28628;BME280;15815;46.760;19.604;2023-03-01T04:38:40;101193.75;;;3.90;80.97
28628;BME280;15815;46.760;19.604;2023-03-01T04:41:09;101214.91;;;4.03;80.84
28628;BME280;15815;46.760;19.604;2023-03-01T04:43:38;101217.00;;;4.07;80.47
28628;BME280;15815;46.760;19.604;2023-03-01T04:46:06;101210.22;;;3.95;80.88
28628;BME280;15815;46.760;19.604;2023-03-01T04:48:32;101184.16;;;3.79;81.28
28628;BME280;15815;46.760;19.604;2023-03-01T04:50:59;101192.78;;;3.86;81.20
28628;BME280;15815;46.760;19.604;2023-03-01T04:53:25;101200.47;;;3.89;81.33
28628;BME280;15815;46.760;19.604;2023-03-01T04:55:51;101217.06;;;3.98;81.61
28628;BME280;15815;46.760;19.604;2023-03-01T04:58:17;101186.22;;;3.91;81.23
28628;BME280;15815;46.760;19.604;2023-03-01T05:00:42;101226.16;;;4.07;81.14
28628;BME280;15815;46.760;19.604;2023-03-01T05:03:08;101200.94;;;3.91;81.23
28628;BME280;15815;46.760;19.604;2023-03-01T05:05:36;101223.47;;;3.98;81.36
28628;BME280;15815;46.760;19.604;2023-03-01T05:08:06;101230.66;;;3.99;81.91
28628;BME280;15815;46.760;19.604;2023-03-01T05:10:34;101218.72;;;3.99;81.65
28628;BME280;15815;46.760;19.604;2023-03-01T05:13:00;101200.66;;;3.84;81.52
28628;BME280;15815;46.760;19.604;2023-03-01T05:15:26;101184.63;;;3.81;81.61
28628;BME280;15815;46.760;19.604;2023-03-01T05:17:54;101203.44;;;3.84;81.76
28628;BME280;15815;46.760;19.604;2023-03-01T05:20:21;101202.75;;;3.87;81.86
28628;BME280;15815;46.760;19.604;2023-03-01T05:22:56;101225.91;;;4.00;81.25
28628;BME280;15815;46.760;19.604;2023-03-01T05:25:22;101200.50;;;3.81;81.20
28628;BME280;15815;46.760;19.604;2023-03-01T05:27:48;101209.00;;;3.84;81.04
28628;BME280;15815;46.760;19.604;2023-03-01T05:30:14;101172.97;;;3.67;81.61
28628;BME280;15815;46.760;19.604;2023-03-01T05:32:48;101220.59;;;3.86;82.21
28628;BME280;15815;46.760;19.604;2023-03-01T05:35:16;101236.91;;;3.96;82.13
28628;BME280;15815;46.760;19.604;2023-03-01T05:37:46;101239.34;;;3.98;81.82
28628;BME280;15815;46.760;19.604;2023-03-01T05:40:14;101213.41;;;3.85;81.82
28628;BME280;15815;46.760;19.604;2023-03-01T05:42:48;101197.25;;;3.79;81.47
28628;BME280;15815;46.760;19.604;2023-03-01T05:45:16;101209.19;;;3.79;81.29
28628;BME280;15815;46.760;19.604;2023-03-01T05:47:45;101234.66;;;3.90;81.32
28628;BME280;15815;46.760;19.604;2023-03-01T05:50:19;101221.13;;;3.80;81.03
28628;BME280;15815;46.760;19.604;2023-03-01T05:52:48;101201.72;;;3.71;81.22
28628;BME280;15815;46.760;19.604;2023-03-01T05:55:16;101226.78;;;3.92;81.17
28628;BME280;15815;46.760;19.604;2023-03-01T05:57:42;101216.38;;;3.80;81.56
28628;BME280;15815;46.760;19.604;2023-03-01T06:00:09;101235.25;;;3.95;81.51
28628;BME280;15815;46.760;19.604;2023-03-01T06:02:35;101212.44;;;3.81;81.62
28628;BME280;15815;46.760;19.604;2023-03-01T06:05:01;101240.16;;;3.98;81.53
28628;BME280;15815;46.760;19.604;2023-03-01T06:07:27;101221.94;;;3.80;81.08
28628;BME280;15815;46.760;19.604;2023-03-01T06:09:53;101254.72;;;3.95;81.68
28628;BME280;15815;46.760;19.604;2023-03-01T06:12:19;101228.47;;;3.84;81.20
28628;BME280;15815;46.760;19.604;2023-03-01T06:14:46;101247.88;;;3.93;81.14
28628;BME280;15815;46.760;19.604;2023-03-01T06:17:12;101231.91;;;3.81;81.38
28628;BME280;15815;46.760;19.604;2023-03-01T06:19:38;101213.50;;;3.68;81.13
28628;BME280;15815;46.760;19.604;2023-03-01T06:22:04;101227.69;;;3.75;81.50
28628;BME280;15815;46.760;19.604;2023-03-01T06:24:29;101258.88;;;3.89;82.12
28628;BME280;15815;46.760;19.604;2023-03-01T06:26:58;101206.03;;;3.60;81.10
28628;BME280;15815;46.760;19.604;2023-03-01T06:29:24;101235.34;;;3.78;81.69
28628;BME280;15815;46.760;19.604;2023-03-01T06:31:49;101228.84;;;3.74;81.56
28628;BME280;15815;46.760;19.604;2023-03-01T06:34:16;101243.50;;;3.83;81.75
28628;BME280;15815;46.760;19.604;2023-03-01T06:36:42;101228.50;;;3.76;81.45
28628;BME280;15815;46.760;19.604;2023-03-01T06:39:09;101224.25;;;3.78;81.24
28628;BME280;15815;46.760;19.604;2023-03-01T06:41:34;101236.16;;;3.87;80.64
28628;BME280;15815;46.760;19.604;2023-03-01T06:44:00;101257.38;;;3.92;81.22
28628;BME280;15815;46.760;19.604;2023-03-01T06:46:25;101248.41;;;3.86;81.20
28628;BME280;15815;46.760;19.604;2023-03-01T06:48:52;101233.69;;;3.86;81.27
28628;BME280;15815;46.760;19.604;2023-03-01T06:51:17;101242.19;;;3.89;81.08
28628;BME280;15815;46.760;19.604;2023-03-01T06:53:45;101228.31;;;3.81;81.21
28628;BME280;15815;46.760;19.604;2023-03-01T06:56:11;101258.47;;;3.99;81.33
28628;BME280;15815;46.760;19.604;2023-03-01T06:58:37;101220.16;;;3.76;80.93
28628;BME280;15815;46.760;19.604;2023-03-01T07:01:07;101264.97;;;4.03;80.86
28628;BME280;15815;46.760;19.604;2023-03-01T07:03:32;101248.69;;;3.93;81.04
28628;BME280;15815;46.760;19.604;2023-03-01T07:05:58;101250.13;;;3.99;80.84
28628;BME280;15815;46.760;19.604;2023-03-01T07:08:24;101270.81;;;4.11;81.24
28628;BME280;15815;46.760;19.604;2023-03-01T07:11:00;101240.28;;;4.02;81.05
28628;BME280;15815;46.760;19.604;2023-03-01T07:13:25;101238.19;;;3.99;81.30
28628;BME280;15815;46.760;19.604;2023-03-01T07:15:51;101246.47;;;4.08;81.12
28628;BME280;15815;46.760;19.604;2023-03-01T07:18:16;101244.50;;;4.08;80.80
28628;BME280;15815;46.760;19.604;2023-03-01T07:20:42;101259.03;;;4.14;80.39
28628;BME280;15815;46.760;19.604;2023-03-01T07:23:10;101256.91;;;4.11;80.07
28628;BME280;15815;46.760;19.604;2023-03-01T07:25:36;101248.84;;;4.18;80.27
28628;BME280;15815;46.760;19.604;2023-03-01T07:28:01;101233.22;;;4.04;79.81
28628;BME280;15815;46.760;19.604;2023-03-01T07:30:27;101242.34;;;4.14;80.19
28628;BME280;15815;46.760;19.604;2023-03-01T07:32:53;101248.03;;;4.17;79.17
28628;BME280;15815;46.760;19.604;2023-03-01T07:35:21;101264.13;;;4.32;78.87
28628;BME280;15815;46.760;19.604;2023-03-01T07:40:12;101249.38;;;4.32;78.80
28628;BME280;15815;46.760;19.604;2023-03-01T07:42:38;101236.50;;;4.27;78.47
28628;BME280;15815;46.760;19.604;2023-03-01T07:45:05;101221.16;;;4.21;78.18
28628;BME280;15815;46.760;19.604;2023-03-01T07:47:32;101236.84;;;4.47;77.97
28628;BME280;15815;46.760;19.604;2023-03-01T07:49:57;101222.78;;;4.43;77.23
28628;BME280;15815;46.760;19.604;2023-03-01T07:52:23;101217.91;;;4.40;77.41
28628;BME280;15815;46.760;19.604;2023-03-01T07:54:49;101223.97;;;4.54;77.12
28628;BME280;15815;46.760;19.604;2023-03-01T07:57:17;101220.72;;;4.52;76.80
28628;BME280;15815;46.760;19.604;2023-03-01T07:59:43;101233.06;;;4.63;76.52
28628;BME280;15815;46.760;19.604;2023-03-01T08:02:10;101245.06;;;4.76;76.29
28628;BME280;15815;46.760;19.604;2023-03-01T08:04:36;101216.34;;;4.63;75.63
28628;BME280;15815;46.760;19.604;2023-03-01T08:07:05;101241.59;;;4.79;74.86
28628;BME280;15815;46.760;19.604;2023-03-01T08:09:31;101210.53;;;4.56;74.50
28628;BME280;15815;46.760;19.604;2023-03-01T08:12:00;101244.03;;;4.81;72.98
28628;BME280;15815;46.760;19.604;2023-03-01T08:14:25;101218.13;;;4.68;71.87
28628;BME280;15815;46.760;19.604;2023-03-01T08:16:51;101224.75;;;4.76;72.05
28628;BME280;15815;46.760;19.604;2023-03-01T08:19:17;101249.31;;;4.94;71.50
28628;BME280;15815;46.760;19.604;2023-03-01T08:21:43;101249.03;;;4.87;71.51
28628;BME280;15815;46.760;19.604;2023-03-01T08:24:08;101224.75;;;4.76;71.35
28628;BME280;15815;46.760;19.604;2023-03-01T08:26:34;101200.25;;;4.69;71.25
28628;BME280;15815;46.760;19.604;2023-03-01T08:29:00;101207.59;;;4.86;71.16
28628;BME280;15815;46.760;19.604;2023-03-01T08:31:35;101229.50;;;5.08;71.00
28628;BME280;15815;46.760;19.604;2023-03-01T08:34:03;101222.06;;;5.00;70.75
28628;BME280;15815;46.760;19.604;2023-03-01T08:36:31;101239.38;;;5.18;70.74
28628;BME280;15815;46.760;19.604;2023-03-01T08:38:58;101209.75;;;5.01;69.47
28628;BME280;15815;46.760;19.604;2023-03-01T08:41:24;101203.59;;;5.08;67.67
28628;BME280;15815;46.760;19.604;2023-03-01T08:43:50;101214.16;;;5.14;67.50
28628;BME280;15815;46.760;19.604;2023-03-01T08:46:15;101224.66;;;5.30;67.32
28628;BME280;15815;46.760;19.604;2023-03-01T08:48:41;101224.06;;;5.24;67.02
28628;BME280;15815;46.760;19.604;2023-03-01T08:51:12;101186.66;;;5.13;67.47
28628;BME280;15815;46.760;19.604;2023-03-01T08:53:39;101204.09;;;5.22;67.31
28628;BME280;15815;46.760;19.604;2023-03-01T08:56:05;101215.13;;;5.43;67.82
28628;BME280;15815;46.760;19.604;2023-03-01T08:58:30;101235.00;;;5.53;66.66
28628;BME280;15815;46.760;19.604;2023-03-01T09:00:57;101222.56;;;5.63;66.59
28628;BME280;15815;46.760;19.604;2023-03-01T09:03:24;101203.53;;;5.53;66.98
28628;BME280;15815;46.760;19.604;2023-03-01T09:05:50;101199.69;;;5.57;67.30
28628;BME280;15815;46.760;19.604;2023-03-01T09:08:17;101195.72;;;5.58;67.23
28628;BME280;15815;46.760;19.604;2023-03-01T09:10:44;101215.25;;;5.83;67.01
28628;BME280;15815;46.760;19.604;2023-03-01T09:13:09;101190.38;;;5.66;65.97
28628;BME280;15815;46.760;19.604;2023-03-01T09:15:38;101186.06;;;5.68;66.72
28628;BME280;15815;46.760;19.604;2023-03-01T09:18:05;101178.50;;;5.69;66.76
28628;BME280;15815;46.760;19.604;2023-03-01T09:20:31;101192.91;;;5.95;66.51
28628;BME280;15815;46.760;19.604;2023-03-01T09:22:58;101192.00;;;6.03;66.33
28628;BME280;15815;46.760;19.604;2023-03-01T09:25:27;101177.22;;;6.03;66.58
28628;BME280;15815;46.760;19.604;2023-03-01T09:27:53;101195.19;;;6.17;66.67
28628;BME280;15815;46.760;19.604;2023-03-01T09:30:19;101170.41;;;6.16;66.57
28628;BME280;15815;46.760;19.604;2023-03-01T09:32:45;101169.47;;;6.24;66.20
28628;BME280;15815;46.760;19.604;2023-03-01T09:35:11;101165.94;;;6.27;66.35
28628;BME280;15815;46.760;19.604;2023-03-01T09:37:37;101179.97;;;6.43;65.85
28628;BME280;15815;46.760;19.604;2023-03-01T09:40:05;101163.22;;;6.43;65.88
28628;BME280;15815;46.760;19.604;2023-03-01T09:42:33;101145.75;;;6.46;65.84
28628;BME280;15815;46.760;19.604;2023-03-01T09:45:05;101182.75;;;6.71;65.24
28628;BME280;15815;46.760;19.604;2023-03-01T09:47:36;101161.56;;;6.70;64.94
28628;BME280;15815;46.760;19.604;2023-03-01T09:50:16;101167.53;;;6.84;65.50
28628;BME280;15815;46.760;19.604;2023-03-01T09:55:55;101177.44;;;6.81;64.67
28628;BME280;15815;46.760;19.604;2023-03-01T10:01:54;101172.69;;;6.98;63.77
28628;BME280;15815;46.760;19.604;2023-03-01T10:09:36;101168.94;;;7.22;64.13
28628;BME280;15815;46.760;19.604;2023-03-01T10:12:07;101148.09;;;7.03;63.99
28628;BME280;15815;46.760;19.604;2023-03-01T10:17:42;101156.56;;;7.23;63.04
28628;BME280;15815;46.760;19.604;2023-03-01T10:20:26;101156.00;;;7.33;62.75
28628;BME280;15815;46.760;19.604;2023-03-01T10:22:52;101139.13;;;7.45;62.76
28628;BME280;15815;46.760;19.604;2023-03-01T10:31:12;101141.16;;;7.99;62.81
28628;BME280;15815;46.760;19.604;2023-03-01T10:33:40;101127.69;;;8.04;61.79
28628;BME280;15815;46.760;19.604;2023-03-01T10:36:07;101137.16;;;8.19;62.62
28628;BME280;15815;46.760;19.604;2023-03-01T10:38:56;101126.13;;;8.26;61.71
28628;BME280;15815;46.760;19.604;2023-03-01T10:41:24;101146.91;;;8.25;61.30
28628;BME280;15815;46.760;19.604;2023-03-01T10:43:55;101136.34;;;8.19;60.68
28628;BME280;15815;46.760;19.604;2023-03-01T10:46:37;101140.56;;;8.28;61.30
28628;BME280;15815;46.760;19.604;2023-03-01T10:51:47;101136.03;;;8.40;61.71
28628;BME280;15815;46.760;19.604;2023-03-01T10:54:26;101096.50;;;8.25;61.64
28628;BME280;15815;46.760;19.604;2023-03-01T10:56:54;101129.53;;;8.35;61.57
28628;BME280;15815;46.760;19.604;2023-03-01T10:59:30;101136.91;;;8.44;62.38
28628;BME280;15815;46.760;19.604;2023-03-01T11:02:21;101138.53;;;8.45;61.46
28628;BME280;15815;46.760;19.604;2023-03-01T11:05:12;101122.75;;;8.56;62.68
28628;BME280;15815;46.760;19.604;2023-03-01T11:07:55;101121.78;;;8.48;61.14
28628;BME280;15815;46.760;19.604;2023-03-01T11:12:50;101117.44;;;8.51;60.53
28628;BME280;15815;46.760;19.604;2023-03-01T11:15:27;101097.03;;;8.50;61.91
28628;BME280;15815;46.760;19.604;2023-03-01T11:17:55;101104.44;;;8.62;61.35
28628;BME280;15815;46.760;19.604;2023-03-01T11:20:29;101116.63;;;8.73;60.69
28628;BME280;15815;46.760;19.604;2023-03-01T11:23:05;101078.03;;;8.63;60.51
28628;BME280;15815;46.760;19.604;2023-03-01T11:25:40;101094.84;;;8.86;60.59
28628;BME280;15815;46.760;19.604;2023-03-01T11:28:12;101080.72;;;8.79;60.50
28628;BME280;15815;46.760;19.604;2023-03-01T11:31:04;101060.19;;;8.97;60.71
28628;BME280;15815;46.760;19.604;2023-03-01T11:36:08;101075.44;;;9.23;59.84
28628;BME280;15815;46.760;19.604;2023-03-01T11:38:39;101066.81;;;9.09;60.39
28628;BME280;15815;46.760;19.604;2023-03-01T11:41:16;101076.78;;;9.33;60.38
28628;BME280;15815;46.760;19.604;2023-03-01T11:43:52;101062.22;;;9.23;60.03
28628;BME280;15815;46.760;19.604;2023-03-01T12:03:28;101028.81;;;10.05;58.55
28628;BME280;15815;46.760;19.604;2023-03-01T12:06:16;101013.53;;;10.02;57.46
28628;BME280;15815;46.760;19.604;2023-03-01T12:08:56;101020.13;;;10.17;57.72
28628;BME280;15815;46.760;19.604;2023-03-01T12:19:31;101016.34;;;10.36;56.90
28628;BME280;15815;46.760;19.604;2023-03-01T12:22:16;101025.53;;;10.33;56.88
28628;BME280;15815;46.760;19.604;2023-03-01T12:25:06;101023.31;;;10.49;58.28
28628;BME280;15815;46.760;19.604;2023-03-01T12:30:25;101015.72;;;10.53;57.76
28628;BME280;15815;46.760;19.604;2023-03-01T12:49:38;100970.13;;;10.77;56.57
28628;BME280;15815;46.760;19.604;2023-03-01T12:52:24;100989.81;;;11.39;56.22
28628;BME280;15815;46.760;19.604;2023-03-01T12:54:57;100994.19;;;11.26;55.86
28628;BME280;15815;46.760;19.604;2023-03-01T12:57:36;100987.22;;;11.09;56.11
28628;BME280;15815;46.760;19.604;2023-03-01T13:11:33;100947.00;;;11.02;56.24
28628;BME280;15815;46.760;19.604;2023-03-01T13:16:47;100934.69;;;11.24;55.58
28628;BME280;15815;46.760;19.604;2023-03-01T13:19:16;100958.84;;;11.32;55.13
28628;BME280;15815;46.760;19.604;2023-03-01T13:21:44;100953.19;;;11.32;55.33
28628;BME280;15815;46.760;19.604;2023-03-01T13:24:37;100952.78;;;11.27;54.31
28628;BME280;15815;46.760;19.604;2023-03-01T13:29:53;100933.09;;;11.30;54.92
28628;BME280;15815;46.760;19.604;2023-03-01T13:32:31;100942.31;;;11.27;55.18
28628;BME280;15815;46.760;19.604;2023-03-01T13:37:45;100922.66;;;11.34;54.31
28628;BME280;15815;46.760;19.604;2023-03-01T13:42:44;100927.97;;;11.54;54.89
28628;BME280;15815;46.760;19.604;2023-03-01T13:47:45;100897.41;;;11.52;54.59
28628;BME280;15815;46.760;19.604;2023-03-01T13:50:48;100892.13;;;11.47;54.51
28628;BME280;15815;46.760;19.604;2023-03-01T13:53:19;100905.88;;;11.66;54.48
28628;BME280;15815;46.760;19.604;2023-03-01T13:55:49;100892.28;;;11.79;54.79
28628;BME280;15815;46.760;19.604;2023-03-01T13:58:27;100912.41;;;11.92;54.28
28628;BME280;15815;46.760;19.604;2023-03-01T14:01:05;100891.41;;;11.75;54.87
28628;BME280;15815;46.760;19.604;2023-03-01T14:03:40;100889.06;;;11.88;54.36
28628;BME280;15815;46.760;19.604;2023-03-01T14:06:10;100890.19;;;11.76;54.97
28628;BME280;15815;46.760;19.604;2023-03-01T14:08:42;100888.59;;;11.75;54.74
28628;BME280;15815;46.760;19.604;2023-03-01T14:14:05;100880.63;;;11.91;54.13
28628;BME280;15815;46.760;19.604;2023-03-01T14:19:19;100888.25;;;11.87;54.78
28628;BME280;15815;46.760;19.604;2023-03-01T14:21:46;100879.41;;;11.78;54.85
28628;BME280;15815;46.760;19.604;2023-03-01T14:24:21;100870.47;;;11.72;54.68
28628;BME280;15815;46.760;19.604;2023-03-01T14:26:49;100856.38;;;11.55;54.10
28628;BME280;15815;46.760;19.604;2023-03-01T14:29:34;100862.84;;;11.62;53.94
28628;BME280;15815;46.760;19.604;2023-03-01T14:32:22;100879.75;;;11.76;54.68
28628;BME280;15815;46.760;19.604;2023-03-01T14:34:50;100874.91;;;11.66;54.98
28628;BME280;15815;46.760;19.604;2023-03-01T14:39:52;100872.91;;;11.67;54.65
28628;BME280;15815;46.760;19.604;2023-03-01T14:42:21;100864.44;;;11.60;54.25
28628;BME280;15815;46.760;19.604;2023-03-01T14:44:51;100868.47;;;11.59;53.99
28628;BME280;15815;46.760;19.604;2023-03-01T14:47:40;100861.56;;;11.42;54.01
28628;BME280;15815;46.760;19.604;2023-03-01T14:50:27;100863.53;;;11.31;54.22
28628;BME280;15815;46.760;19.604;2023-03-01T14:53:04;100878.75;;;11.23;54.46
28628;BME280;15815;46.760;19.604;2023-03-01T14:55:36;100872.72;;;11.17;55.01
28628;BME280;15815;46.760;19.604;2023-03-01T14:58:09;100883.16;;;11.13;55.09
28628;BME280;15815;46.760;19.604;2023-03-01T15:00:37;100878.69;;;11.05;55.61